createdAt,value
2022-12-01T00:00:19.918Z,1.500000
2022-12-01T00:05:23.082Z,1.412500
2022-12-01T00:10:28.117Z,1.400000
2022-12-01T00:15:29.510Z,1.400000
2022-12-01T00:20:20.561Z,1.400000
2022-12-01T00:25:23.796Z,1.350000
2022-12-01T00:30:28.135Z,1.300000
2022-12-01T00:35:30.791Z,1.300000
2022-12-01T00:40:21.031Z,1.300000
2022-12-01T00:45:24.453Z,1.250000
2022-12-01T00:50:28.224Z,1.200000
2022-12-01T00:55:30.500Z,1.216667
2022-12-01T01:00:21.509Z,1.300000
2022-12-01T01:05:24.576Z,1.300000
2022-12-01T01:10:28.157Z,1.266667
2022-12-01T01:15:31.965Z,1.200000
2022-12-01T01:20:22.053Z,1.200000
2022-12-01T01:25:28.227Z,1.200000
2022-12-01T01:30:28.474Z,1.200000
2022-12-01T01:35:19.636Z,1.250000
2022-12-01T01:40:22.600Z,1.300000
2022-12-01T01:45:28.697Z,1.209091
2022-12-01T01:50:28.871Z,1.200000
2022-12-01T01:55:19.917Z,1.200000
2022-12-01T02:00:23.032Z,1.200000
2022-12-01T02:05:28.684Z,1.157143
2022-12-01T02:10:29.486Z,1.100000
2022-12-01T02:15:20.314Z,1.100000
2022-12-01T02:20:23.453Z,1.100000
2022-12-01T02:25:29.606Z,1.100000
2022-12-01T02:30:30.149Z,1.100000
2022-12-01T02:35:21.127Z,1.110000
2022-12-01T02:40:24.354Z,1.200000
2022-12-01T02:45:29.290Z,1.200000
2022-12-01T02:50:30.517Z,1.185714
2022-12-01T02:55:21.522Z,1.100000
2022-12-01T03:00:24.689Z,1.100000
2022-12-01T03:05:27.765Z,1.100000
2022-12-01T03:10:18.806Z,1.100000
2022-12-01T03:15:21.918Z,1.100000
2022-12-01T03:20:25.177Z,1.100000
2022-12-01T03:25:29.416Z,1.100000
2022-12-01T03:30:19.557Z,1.100000
2022-12-01T03:35:22.747Z,1.038462
2022-12-01T03:40:25.862Z,1.000000
2022-12-01T03:45:29.721Z,1.000000
2022-12-01T03:50:20.037Z,1.000000
2022-12-01T03:55:23.254Z,1.000000
2022-12-01T04:00:26.374Z,1.000000
2022-12-01T04:05:29.690Z,1.000000
2022-12-01T04:10:20.525Z,1.000000
2022-12-01T04:15:23.609Z,1.000000
2022-12-01T04:20:26.819Z,1.000000
2022-12-01T04:25:30.242Z,1.000000
2022-12-01T04:30:21.101Z,1.000000
2022-12-01T04:35:24.379Z,1.000000
2022-12-01T04:40:30.205Z,1.000000
2022-12-01T04:45:30.555Z,1.000000
2022-12-01T04:50:21.744Z,1.000000
2022-12-01T04:55:24.669Z,1.000000
2022-12-01T05:00:30.326Z,1.000000
2022-12-01T05:05:18.823Z,1.000000
2022-12-01T05:10:21.879Z,1.000000
2022-12-01T05:15:25.294Z,1.000000
2022-12-01T05:20:30.242Z,1.000000
2022-12-01T05:25:19.604Z,1.000000
2022-12-01T05:30:28.236Z,1.025000
2022-12-01T05:35:25.860Z,1.100000
2022-12-01T05:40:30.726Z,1.100000
2022-12-01T05:45:20.013Z,1.008333
2022-12-01T05:50:23.170Z,1.000000
2022-12-01T05:55:26.367Z,1.000000
2022-12-01T06:00:30.741Z,1.000000
2022-12-01T06:05:20.480Z,1.000000
2022-12-01T06:10:23.621Z,1.000000
2022-12-01T06:15:26.626Z,1.000000
2022-12-01T06:20:30.669Z,1.011111
2022-12-01T06:25:21.746Z,1.000000
2022-12-01T06:30:24.171Z,1.000000
2022-12-01T06:35:19.152Z,1.000000
2022-12-01T06:40:19.221Z,1.027273
2022-12-01T06:45:21.555Z,1.020000
2022-12-01T06:50:19.114Z,1.100000
2022-12-01T06:55:19.337Z,1.084615
2022-12-01T07:00:19.165Z,1.041667
2022-12-01T07:05:21.952Z,1.050000
2022-12-01T07:10:19.230Z,1.100000
2022-12-01T07:15:19.282Z,1.100000
2022-12-01T07:20:32.070Z,1.100000
2022-12-01T07:25:19.224Z,1.100000
2022-12-01T07:30:19.201Z,1.100000
2022-12-01T07:35:19.783Z,1.100000
2022-12-01T07:40:19.895Z,1.200000
2022-12-01T07:45:19.609Z,1.220000
2022-12-01T07:50:26.336Z,1.300000
2022-12-01T07:55:19.751Z,1.300000
2022-12-01T08:00:20.306Z,1.390909
2022-12-01T08:05:20.955Z,1.400000
2022-12-01T08:10:19.735Z,1.400000
2022-12-01T08:15:19.862Z,1.400000
2022-12-01T08:20:24.005Z,1.400000
2022-12-01T08:25:23.936Z,1.481818
2022-12-01T08:30:27.109Z,1.500000
2022-12-01T08:35:20.143Z,1.500000
2022-12-01T08:40:21.249Z,1.572727
2022-12-01T08:45:20.261Z,1.600000
2022-12-01T08:50:20.182Z,1.700000
2022-12-01T08:55:20.249Z,1.700000
2022-12-01T09:00:21.638Z,1.700000
2022-12-01T09:05:20.236Z,1.700000
2022-12-01T09:10:20.160Z,1.790000
2022-12-01T09:15:18.959Z,1.800000
2022-12-01T09:20:22.783Z,1.862500
2022-12-01T09:25:20.214Z,1.900000
2022-12-01T09:30:20.188Z,1.900000
2022-12-01T09:35:23.384Z,1.909091
2022-12-01T09:40:22.798Z,2.000000
2022-12-01T09:45:20.667Z,2.000000
2022-12-01T09:50:20.708Z,2.000000
2022-12-01T09:55:20.687Z,2.036364
2022-12-01T10:00:23.175Z,2.100000
2022-12-01T10:05:20.774Z,2.160000
2022-12-01T10:10:29.520Z,2.200000
2022-12-01T10:15:20.580Z,2.200000
2022-12-01T10:20:23.679Z,2.180000
2022-12-01T10:25:27.436Z,2.100000
2022-12-01T10:30:20.743Z,2.100000
2022-12-01T10:35:21.365Z,2.088889
2022-12-01T10:40:21.188Z,2.100000
2022-12-01T10:45:21.213Z,2.100000
2022-12-01T10:50:33.075Z,2.166667
2022-12-01T10:55:22.511Z,2.200000
2022-12-01T11:00:43.276Z,2.200000
2022-12-01T11:05:21.138Z,2.280000
2022-12-01T11:10:21.337Z,2.300000
2022-12-01T11:15:22.194Z,2.300000
2022-12-01T11:20:21.321Z,2.300000
2022-12-01T11:25:21.187Z,2.300000
2022-12-01T11:30:21.386Z,2.300000
2022-12-01T11:35:22.898Z,2.300000
2022-12-01T11:40:21.647Z,2.300000
2022-12-01T11:45:21.755Z,2.300000
2022-12-01T11:50:21.540Z,2.266667
2022-12-01T11:55:23.139Z,2.200000
2022-12-01T12:00:21.730Z,2.200000
2022-12-01T12:05:21.672Z,2.200000
2022-12-01T12:10:21.959Z,2.200000
2022-12-01T12:15:23.453Z,2.191667
2022-12-01T12:20:21.751Z,2.100000
2022-12-01T12:25:21.784Z,2.100000
2022-12-01T12:30:21.643Z,2.100000
2022-12-01T12:35:24.421Z,2.177778
2022-12-01T12:40:22.140Z,2.200000
2022-12-01T12:45:22.028Z,2.200000
2022-12-01T12:50:22.100Z,2.200000
2022-12-01T12:55:24.885Z,2.200000
2022-12-01T13:00:22.089Z,2.200000
2022-12-01T13:05:18.939Z,2.200000
2022-12-01T13:10:22.424Z,2.200000
2022-12-01T13:15:22.240Z,2.200000
2022-12-01T13:20:22.351Z,2.200000
2022-12-01T13:25:22.323Z,2.200000
2022-12-01T13:30:22.531Z,2.200000
2022-12-01T13:35:22.845Z,2.200000
2022-12-01T13:40:28.986Z,2.100000
2022-12-01T13:45:22.542Z,2.100000
2022-12-01T13:50:22.913Z,2.100000
2022-12-01T13:55:22.800Z,2.025000
2022-12-01T14:00:22.734Z,2.000000
2022-12-01T14:05:20.195Z,1.983333
2022-12-01T14:10:23.476Z,1.887500
2022-12-01T14:15:22.622Z,1.800000
2022-12-01T14:20:22.529Z,1.800000
2022-12-01T14:25:22.580Z,1.762500
2022-12-01T14:30:24.385Z,1.700000
2022-12-01T14:35:23.162Z,1.625000
2022-12-01T14:40:23.097Z,1.600000
2022-12-01T14:45:23.341Z,1.600000
2022-12-01T14:50:25.202Z,1.600000
2022-12-01T14:55:23.086Z,1.600000
2022-12-01T15:00:24.239Z,1.600000
2022-12-01T15:05:23.554Z,1.600000
2022-12-01T15:10:25.254Z,1.600000
2022-12-01T15:15:24.334Z,1.600000
2022-12-01T15:20:19.159Z,1.600000
2022-12-01T15:25:23.346Z,1.554545
2022-12-01T15:30:25.601Z,1.500000
2022-12-01T15:35:23.750Z,1.500000
2022-12-01T15:41:21.059Z,1.500000
2022-12-01T15:45:23.591Z,1.500000
2022-12-01T15:50:25.868Z,1.500000
2022-12-01T15:55:24.716Z,1.563636
2022-12-01T16:00:20.095Z,1.600000
2022-12-01T16:05:23.553Z,1.600000
2022-12-01T16:10:26.494Z,1.600000
2022-12-01T16:15:23.619Z,1.633333
2022-12-01T16:20:20.541Z,1.700000
2022-12-01T16:25:23.943Z,1.708333
2022-12-01T16:30:23.906Z,1.800000
2022-12-01T16:35:24.068Z,1.800000
2022-12-01T16:40:24.274Z,1.850000
2022-12-01T16:45:24.193Z,1.900000
2022-12-01T16:50:24.309Z,1.966667
2022-12-01T16:55:24.072Z,2.042857
2022-12-01T17:00:24.064Z,2.122222
2022-12-01T17:05:24.690Z,2.200000
2022-12-01T17:10:24.229Z,2.300000
2022-12-01T17:15:18.862Z,2.350000
2022-12-01T17:20:24.092Z,2.430000
2022-12-01T17:25:25.200Z,2.500000
2022-12-01T17:30:24.154Z,2.557143
2022-12-01T17:35:19.270Z,2.600000
2022-12-01T17:40:24.554Z,2.600000
2022-12-01T17:45:26.191Z,2.636364
2022-12-01T17:50:24.535Z,2.700000
2022-12-01T17:55:19.887Z,2.700000
2022-12-01T18:00:22.839Z,2.700000
2022-12-01T18:05:25.996Z,2.675000
2022-12-01T18:10:24.719Z,2.600000
2022-12-01T18:15:20.376Z,2.600000
2022-12-01T18:20:23.375Z,2.600000
2022-12-01T18:25:26.658Z,2.600000
2022-12-01T18:30:24.530Z,2.600000
2022-12-01T18:35:20.859Z,2.600000
2022-12-01T18:40:25.123Z,2.577778
2022-12-01T18:45:27.953Z,2.500000
2022-12-01T18:50:25.029Z,2.518182
2022-12-01T18:55:21.314Z,2.600000
2022-12-01T19:00:25.128Z,2.600000
2022-12-01T19:05:27.516Z,2.640000
2022-12-01T19:10:25.224Z,2.630000
2022-12-01T19:15:21.662Z,2.683333
2022-12-01T19:20:24.763Z,2.600000
2022-12-01T19:25:25.123Z,2.600000
2022-12-01T19:30:19.207Z,2.600000
2022-12-01T19:35:22.390Z,2.654545
2022-12-01T19:40:37.621Z,2.700000
2022-12-01T19:45:25.652Z,2.716667
2022-12-01T19:50:19.569Z,2.745455
2022-12-01T19:55:25.570Z,2.745455
2022-12-01T20:00:25.973Z,2.800000
2022-12-01T20:05:29.114Z,2.800000
2022-12-01T20:10:20.101Z,2.722222
2022-12-01T20:15:23.197Z,2.700000
2022-12-01T20:20:26.250Z,2.700000
2022-12-01T20:25:25.559Z,2.700000
2022-12-01T20:30:20.706Z,2.700000
2022-12-01T20:35:23.739Z,2.800000
2022-12-01T20:40:28.189Z,2.800000
2022-12-01T20:45:26.037Z,2.766667
2022-12-01T20:50:21.084Z,2.700000
2022-12-01T20:55:26.108Z,2.700000
2022-12-01T21:00:27.355Z,2.700000
2022-12-01T21:05:25.962Z,2.700000
2022-12-01T21:10:21.431Z,2.660000
2022-12-01T21:15:24.799Z,2.646154
2022-12-01T21:20:27.775Z,2.663636
2022-12-01T21:25:19.013Z,2.691667
2022-12-01T21:30:22.122Z,2.600000
2022-12-01T21:35:25.245Z,2.600000
2022-12-01T21:40:29.722Z,2.700000
2022-12-01T21:45:19.510Z,2.700000
2022-12-01T21:50:22.581Z,2.628571
2022-12-01T21:55:26.421Z,2.600000
2022-12-01T22:00:28.791Z,2.600000
2022-12-01T22:05:19.795Z,2.600000
2022-12-01T22:10:22.860Z,2.600000
2022-12-01T22:15:26.731Z,2.590000
2022-12-01T22:20:29.183Z,2.500000
2022-12-01T22:25:20.541Z,2.500000
2022-12-01T22:30:26.520Z,2.572727
2022-12-01T22:35:26.967Z,2.600000
2022-12-01T22:40:30.704Z,2.700000
2022-12-01T22:45:20.847Z,2.700000
2022-12-01T22:50:24.054Z,2.625000
2022-12-01T22:55:27.156Z,2.600000
2022-12-01T23:00:26.897Z,2.600000
2022-12-01T23:05:21.307Z,2.600000
2022-12-01T23:10:27.055Z,2.600000
2022-12-01T23:15:27.636Z,2.600000
2022-12-01T23:20:27.051Z,2.600000
2022-12-01T23:25:22.042Z,2.536364
2022-12-01T23:30:26.984Z,2.500000
2022-12-01T23:35:28.356Z,2.500000
2022-12-01T23:40:20.295Z,2.500000
2022-12-01T23:45:22.537Z,2.500000
2022-12-01T23:50:27.465Z,2.500000
2022-12-01T23:55:28.687Z,2.500000
